Terminal Aerodrome Forecast
Issued by NWS

Home | Current Version | Previous Version | Text Only | Print | Product List | Glossary On
Versions: 1 2 3 4 5 6 7 8 9 10 11 12 13 14 15 16 17
000
FTUS43 KICT 281736
TAFRSL
TAF
KRSL 281736Z 2818/2918 14011KT P6SM SCT030 BKN070
     FM282000 17015G21KT P6SM SCT025 BKN080
     FM290100 15008KT P6SM SCT020 BKN035
     FM290500 16010KT P6SM VCTS BKN020CB OVC080
     FM291000 21010KT P6SM BKN012 OVC060=

USA.gov is the U.S. government's official web portal to all federal, state and local government web resources and services.